sensor_id;sensor_type;location;lat;lon;timestamp;pressure;altitude;pressure_sealevel;temperature;humidity
31717;BME280;18301;51.076;17.046;2023-11-18T00:02:55;100351.63;;;5.74;91.81
31717;BME280;18301;51.076;17.046;2023-11-18T00:07:57;100367.19;;;5.83;91.72
31717;BME280;18301;51.076;17.046;2023-11-18T00:12:58;100354.53;;;5.69;93.21
31717;BME280;18301;51.076;17.046;2023-11-18T00:18:00;100349.47;;;5.81;91.63
31717;BME280;18301;51.076;17.046;2023-11-18T00:23:02;100354.09;;;5.61;92.80
31717;BME280;18301;51.076;17.046;2023-11-18T00:28:06;100362.34;;;5.90;90.59
31717;BME280;18301;51.076;17.046;2023-11-18T00:33:10;100368.88;;;5.68;92.63
31717;BME280;18301;51.076;17.046;2023-11-18T00:38:12;100369.75;;;5.69;93.74
31717;BME280;18301;51.076;17.046;2023-11-18T00:43:14;100374.56;;;5.62;92.89
31717;BME280;18301;51.076;17.046;2023-11-18T00:48:15;100370.75;;;5.66;92.24
31717;BME280;18301;51.076;17.046;2023-11-18T00:53:17;100389.06;;;5.58;93.52
31717;BME280;18301;51.076;17.046;2023-11-18T00:58:20;100377.03;;;5.83;92.42
31717;BME280;18301;51.076;17.046;2023-11-18T01:03:21;100380.94;;;5.60;93.29
31717;BME280;18301;51.076;17.046;2023-11-18T01:08:23;100382.91;;;5.73;93.37
31717;BME280;18301;51.076;17.046;2023-11-18T01:13:26;100384.41;;;5.62;94.28
31717;BME280;18301;51.076;17.046;2023-11-18T01:18:28;100391.81;;;5.57;94.61
31717;BME280;18301;51.076;17.046;2023-11-18T01:23:29;100417.41;;;5.62;94.77
31717;BME280;18301;51.076;17.046;2023-11-18T01:28:32;100414.41;;;5.51;96.45
31717;BME280;18301;51.076;17.046;2023-11-18T01:33:38;100417.25;;;5.48;96.71
31717;BME280;18301;51.076;17.046;2023-11-18T01:38:43;100424.75;;;5.24;99.06
31717;BME280;18301;51.076;17.046;2023-11-18T01:43:47;100433.19;;;4.99;99.73
31717;BME280;18301;51.076;17.046;2023-11-18T01:48:49;100432.53;;;5.46;97.58
31717;BME280;18301;51.076;17.046;2023-11-18T01:53:53;100440.09;;;5.38;98.89
31717;BME280;18301;51.076;17.046;2023-11-18T01:58:55;100435.91;;;5.32;99.10
31717;BME280;18301;51.076;17.046;2023-11-18T02:03:57;100448.38;;;5.33;98.47
31717;BME280;18301;51.076;17.046;2023-11-18T02:09:01;100440.41;;;5.49;96.75
31717;BME280;18301;51.076;17.046;2023-11-18T02:14:02;100440.22;;;5.69;96.81
31717;BME280;18301;51.076;17.046;2023-11-18T02:19:35;100472.53;;;5.31;97.08
31717;BME280;18301;51.076;17.046;2023-11-18T02:24:37;100486.38;;;5.22;97.16
31717;BME280;18301;51.076;17.046;2023-11-18T02:29:44;100487.31;;;5.39;96.63
31717;BME280;18301;51.076;17.046;2023-11-18T02:34:52;100496.16;;;5.04;98.06
31717;BME280;18301;51.076;17.046;2023-11-18T02:40:01;100503.31;;;4.87;98.91
31717;BME280;18301;51.076;17.046;2023-11-18T02:45:07;100505.69;;;5.10;97.94
31717;BME280;18301;51.076;17.046;2023-11-18T02:50:10;100517.34;;;5.09;98.09
31717;BME280;18301;51.076;17.046;2023-11-18T02:55:12;100524.66;;;5.05;98.09
31717;BME280;18301;51.076;17.046;2023-11-18T03:00:14;100526.59;;;5.38;96.90
31717;BME280;18301;51.076;17.046;2023-11-18T03:05:25;100530.72;;;5.09;98.50
31717;BME280;18301;51.076;17.046;2023-11-18T03:10:27;100531.03;;;5.03;99.17
31717;BME280;18301;51.076;17.046;2023-11-18T03:15:31;100551.38;;;5.24;97.79
31717;BME280;18301;51.076;17.046;2023-11-18T03:20:33;100546.78;;;5.26;98.01
31717;BME280;18301;51.076;17.046;2023-11-18T03:25:35;100560.66;;;5.17;97.65
31717;BME280;18301;51.076;17.046;2023-11-18T03:30:36;100567.34;;;5.26;95.42
31717;BME280;18301;51.076;17.046;2023-11-18T03:35:39;100574.78;;;5.02;97.39
31717;BME280;18301;51.076;17.046;2023-11-18T03:40:41;100571.06;;;5.23;95.30
31717;BME280;18301;51.076;17.046;2023-11-18T03:45:43;100577.88;;;4.93;96.57
31717;BME280;18301;51.076;17.046;2023-11-18T03:50:44;100583.38;;;4.90;97.88
31717;BME280;18301;51.076;17.046;2023-11-18T03:55:46;100588.16;;;5.02;96.35
31717;BME280;18301;51.076;17.046;2023-11-18T04:00:48;100584.22;;;5.09;96.51
31717;BME280;18301;51.076;17.046;2023-11-18T04:05:49;100599.84;;;4.99;95.99
31717;BME280;18301;51.076;17.046;2023-11-18T04:10:51;100597.53;;;4.92;97.13
31717;BME280;18301;51.076;17.046;2023-11-18T04:15:53;100597.38;;;4.95;98.13
31717;BME280;18301;51.076;17.046;2023-11-18T04:20:54;100598.81;;;4.83;98.12
31717;BME280;18301;51.076;17.046;2023-11-18T04:25:56;100600.84;;;4.97;99.79
31717;BME280;18301;51.076;17.046;2023-11-18T04:30:57;100596.78;;;5.07;98.35
31717;BME280;18301;51.076;17.046;2023-11-18T04:35:59;100603.09;;;5.06;98.39
31717;BME280;18301;51.076;17.046;2023-11-18T04:41:01;100610.63;;;5.53;96.43
31717;BME280;18301;51.076;17.046;2023-11-18T04:46:05;100602.16;;;5.07;98.11
31717;BME280;18301;51.076;17.046;2023-11-18T04:51:07;100615.38;;;5.10;97.49
31717;BME280;18301;51.076;17.046;2023-11-18T04:56:09;100619.28;;;5.03;98.02
31717;BME280;18301;51.076;17.046;2023-11-18T05:01:13;100617.28;;;5.08;97.74
31717;BME280;18301;51.076;17.046;2023-11-18T05:06:15;100626.22;;;5.07;97.67
31717;BME280;18301;51.076;17.046;2023-11-18T05:11:16;100638.44;;;4.94;98.00
31717;BME280;18301;51.076;17.046;2023-11-18T05:16:18;100635.41;;;5.01;98.61
31717;BME280;18301;51.076;17.046;2023-11-18T05:21:20;100652.34;;;5.02;98.37
31717;BME280;18301;51.076;17.046;2023-11-18T05:26:23;100644.78;;;5.10;97.51
31717;BME280;18301;51.076;17.046;2023-11-18T05:31:26;100653.63;;;5.12;95.80
31717;BME280;18301;51.076;17.046;2023-11-18T05:36:27;100650.22;;;4.90;97.95
31717;BME280;18301;51.076;17.046;2023-11-18T05:41:31;100655.78;;;5.04;97.69
31717;BME280;18301;51.076;17.046;2023-11-18T05:46:33;100655.66;;;5.07;96.14
31717;BME280;18301;51.076;17.046;2023-11-18T05:51:35;100660.41;;;5.19;95.29
31717;BME280;18301;51.076;17.046;2023-11-18T05:56:37;100662.75;;;5.27;94.30
31717;BME280;18301;51.076;17.046;2023-11-18T06:01:39;100689.78;;;5.02;95.58
31717;BME280;18301;51.076;17.046;2023-11-18T06:06:41;100689.00;;;4.79;96.21
31717;BME280;18301;51.076;17.046;2023-11-18T06:11:42;100697.44;;;5.10;94.21
31717;BME280;18301;51.076;17.046;2023-11-18T06:16:47;100687.09;;;5.02;94.61
31717;BME280;18301;51.076;17.046;2023-11-18T06:21:51;100707.69;;;5.00;94.54
31717;BME280;18301;51.076;17.046;2023-11-18T06:26:53;100705.03;;;5.00;94.86
31717;BME280;18301;51.076;17.046;2023-11-18T06:31:55;100708.56;;;5.00;95.10
31717;BME280;18301;51.076;17.046;2023-11-18T06:36:56;100715.22;;;5.29;93.64
31717;BME280;18301;51.076;17.046;2023-11-18T06:41:58;100713.28;;;5.14;93.82
31717;BME280;18301;51.076;17.046;2023-11-18T06:47:00;100725.56;;;4.99;94.18
31717;BME280;18301;51.076;17.046;2023-11-18T06:52:03;100730.13;;;5.16;93.59
31717;BME280;18301;51.076;17.046;2023-11-18T06:57:05;100739.22;;;5.12;93.93
31717;BME280;18301;51.076;17.046;2023-11-18T07:02:08;100753.84;;;4.84;95.42
31717;BME280;18301;51.076;17.046;2023-11-18T07:07:11;100759.75;;;4.93;94.38
31717;BME280;18301;51.076;17.046;2023-11-18T07:12:14;100765.81;;;4.76;95.54
31717;BME280;18301;51.076;17.046;2023-11-18T07:17:15;100768.22;;;4.82;95.15
31717;BME280;18301;51.076;17.046;2023-11-18T07:22:20;100765.59;;;5.01;94.35
31717;BME280;18301;51.076;17.046;2023-11-18T07:27:22;100764.16;;;5.13;94.33
31717;BME280;18301;51.076;17.046;2023-11-18T07:32:23;100776.41;;;5.18;93.88
31717;BME280;18301;51.076;17.046;2023-11-18T07:37:26;100771.72;;;5.23;94.08
31717;BME280;18301;51.076;17.046;2023-11-18T07:42:28;100785.09;;;5.23;93.97
31717;BME280;18301;51.076;17.046;2023-11-18T07:47:30;100789.66;;;5.21;94.17
31717;BME280;18301;51.076;17.046;2023-11-18T07:52:35;100792.47;;;4.98;93.94
31717;BME280;18301;51.076;17.046;2023-11-18T07:57:37;100797.13;;;5.13;94.91
31717;BME280;18301;51.076;17.046;2023-11-18T08:02:39;100795.06;;;5.39;93.15
31717;BME280;18301;51.076;17.046;2023-11-18T08:07:41;100804.44;;;5.49;92.17
31717;BME280;18301;51.076;17.046;2023-11-18T08:12:45;100804.22;;;5.53;91.14
31717;BME280;18301;51.076;17.046;2023-11-18T08:17:48;100801.91;;;5.46;91.42
31717;BME280;18301;51.076;17.046;2023-11-18T08:22:51;100803.34;;;5.53;93.40
31717;BME280;18301;51.076;17.046;2023-11-18T08:27:53;100808.56;;;5.56;91.49
31717;BME280;18301;51.076;17.046;2023-11-18T08:32:54;100805.34;;;5.48;92.76
31717;BME280;18301;51.076;17.046;2023-11-18T08:37:56;100809.53;;;5.35;92.75
31717;BME280;18301;51.076;17.046;2023-11-18T08:42:58;100826.00;;;5.84;91.47
31717;BME280;18301;51.076;17.046;2023-11-18T08:48:02;100830.69;;;5.78;89.77
31717;BME280;18301;51.076;17.046;2023-11-18T08:53:05;100829.56;;;6.03;91.07
31717;BME280;18301;51.076;17.046;2023-11-18T08:58:12;100839.25;;;5.87;90.58
31717;BME280;18301;51.076;17.046;2023-11-18T09:03:30;100850.78;;;5.89;90.34
31717;BME280;18301;51.076;17.046;2023-11-18T09:08:38;100858.06;;;5.66;91.21
31717;BME280;18301;51.076;17.046;2023-11-18T09:13:45;100875.50;;;5.36;93.17
31717;BME280;18301;51.076;17.046;2023-11-18T09:18:51;100873.41;;;5.23;93.54
31717;BME280;18301;51.076;17.046;2023-11-18T09:23:53;100870.50;;;5.48;91.89
31717;BME280;18301;51.076;17.046;2023-11-18T09:28:54;100885.09;;;5.60;90.30
31717;BME280;18301;51.076;17.046;2023-11-18T09:33:57;100887.97;;;5.76;90.78
31717;BME280;18301;51.076;17.046;2023-11-18T09:38:59;100890.88;;;5.51;91.55
31717;BME280;18301;51.076;17.046;2023-11-18T09:44:01;100880.44;;;5.45;92.07
31717;BME280;18301;51.076;17.046;2023-11-18T09:59:54;100891.66;;;5.73;90.99
31717;BME280;18301;51.076;17.046;2023-11-18T10:04:58;100892.97;;;5.84;90.36
31717;BME280;18301;51.076;17.046;2023-11-18T10:10:02;100901.03;;;5.63;91.42
31717;BME280;18301;51.076;17.046;2023-11-18T10:15:04;100908.28;;;5.61;91.71
31717;BME280;18301;51.076;17.046;2023-11-18T10:20:12;100906.53;;;5.99;90.63
31717;BME280;18301;51.076;17.046;2023-11-18T10:25:23;100908.34;;;6.37;89.63
31717;BME280;18301;51.076;17.046;2023-11-18T10:30:25;100919.44;;;6.29;87.83
31717;BME280;18301;51.076;17.046;2023-11-18T10:35:27;100916.41;;;5.78;88.11
31717;BME280;18301;51.076;17.046;2023-11-18T10:40:31;100935.88;;;6.03;88.41
31717;BME280;18301;51.076;17.046;2023-11-18T10:45:33;100928.94;;;6.17;87.33
31717;BME280;18301;51.076;17.046;2023-11-18T10:50:35;100939.50;;;6.20;87.32
31717;BME280;18301;51.076;17.046;2023-11-18T10:55:39;100947.03;;;6.12;85.46
31717;BME280;18301;51.076;17.046;2023-11-18T11:00:51;100934.53;;;6.32;86.50
31717;BME280;18301;51.076;17.046;2023-11-18T11:06:15;100942.97;;;6.60;84.11
31717;BME280;18301;51.076;17.046;2023-11-18T11:11:22;100937.59;;;6.60;83.57
31717;BME280;18301;51.076;17.046;2023-11-18T11:16:41;100934.53;;;6.68;83.06
31717;BME280;18301;51.076;17.046;2023-11-18T11:21:50;100947.53;;;6.95;81.23
31717;BME280;18301;51.076;17.046;2023-11-18T11:27:11;100952.63;;;6.82;82.09
31717;BME280;18301;51.076;17.046;2023-11-18T11:32:26;100954.97;;;7.07;80.96
31717;BME280;18301;51.076;17.046;2023-11-18T11:37:32;100959.34;;;7.27;80.59
31717;BME280;18301;51.076;17.046;2023-11-18T11:42:36;100955.75;;;7.26;81.29
31717;BME280;18301;51.076;17.046;2023-11-18T11:47:41;100955.06;;;7.40;80.94
31717;BME280;18301;51.076;17.046;2023-11-18T11:52:53;100961.69;;;7.50;78.60
31717;BME280;18301;51.076;17.046;2023-11-18T11:58:00;100966.25;;;7.13;79.84
31717;BME280;18301;51.076;17.046;2023-11-18T12:03:02;100976.75;;;7.01;80.09
31717;BME280;18301;51.076;17.046;2023-11-18T12:08:12;100964.63;;;6.75;82.32
31717;BME280;18301;51.076;17.046;2023-11-18T12:13:14;100985.28;;;6.73;82.85
31717;BME280;18301;51.076;17.046;2023-11-18T12:18:21;100981.47;;;6.59;84.35
31717;BME280;18301;51.076;17.046;2023-11-18T12:23:23;100991.00;;;6.65;84.52
31717;BME280;18301;51.076;17.046;2023-11-18T12:28:28;100977.09;;;6.76;84.46
31717;BME280;18301;51.076;17.046;2023-11-18T12:49:56;100980.94;;;6.51;85.44
31717;BME280;18301;51.076;17.046;2023-11-18T12:54:58;100983.84;;;6.65;85.07
31717;BME280;18301;51.076;17.046;2023-11-18T13:00:02;100982.38;;;6.58;84.36
31717;BME280;18301;51.076;17.046;2023-11-18T13:05:05;100991.00;;;6.65;84.85
31717;BME280;18301;51.076;17.046;2023-11-18T13:10:10;100991.09;;;6.63;84.31
31717;BME280;18301;51.076;17.046;2023-11-18T13:15:16;100981.78;;;6.71;84.61
31717;BME280;18301;51.076;17.046;2023-11-18T13:20:18;100989.41;;;6.61;84.51
31717;BME280;18301;51.076;17.046;2023-11-18T13:25:26;100983.91;;;6.64;84.42
31717;BME280;18301;51.076;17.046;2023-11-18T13:30:28;101001.53;;;6.69;84.03
31717;BME280;18301;51.076;17.046;2023-11-18T13:35:30;101001.53;;;6.69;84.36
31717;BME280;18301;51.076;17.046;2023-11-18T13:40:43;101000.94;;;6.82;84.13
31717;BME280;18301;51.076;17.046;2023-11-18T13:45:50;101006.19;;;7.02;82.58
31717;BME280;18301;51.076;17.046;2023-11-18T13:50:53;100998.75;;;6.90;82.92
31717;BME280;18301;51.076;17.046;2023-11-18T13:55:55;100993.38;;;6.90;82.93
31717;BME280;18301;51.076;17.046;2023-11-18T14:00:57;100990.19;;;6.82;82.93
31717;BME280;18301;51.076;17.046;2023-11-18T14:05:59;100986.72;;;6.80;82.74
31717;BME280;18301;51.076;17.046;2023-11-18T14:11:03;100990.50;;;6.76;82.33
31717;BME280;18301;51.076;17.046;2023-11-18T14:16:13;100989.22;;;6.65;81.81
31717;BME280;18301;51.076;17.046;2023-11-18T14:21:18;100986.91;;;6.39;82.55
31717;BME280;18301;51.076;17.046;2023-11-18T14:26:19;100990.00;;;6.30;83.23
31717;BME280;18301;51.076;17.046;2023-11-18T14:31:22;101006.75;;;6.16;83.68
31717;BME280;18301;51.076;17.046;2023-11-18T14:36:25;100997.16;;;6.10;83.87
31717;BME280;18301;51.076;17.046;2023-11-18T14:41:27;101014.28;;;6.27;84.35
31717;BME280;18301;51.076;17.046;2023-11-18T14:46:31;101021.16;;;6.32;83.74
31717;BME280;18301;51.076;17.046;2023-11-18T14:51:32;101016.91;;;6.28;83.83
31717;BME280;18301;51.076;17.046;2023-11-18T14:56:34;101011.53;;;6.28;84.64
31717;BME280;18301;51.076;17.046;2023-11-18T15:01:36;101021.31;;;6.29;84.28
31717;BME280;18301;51.076;17.046;2023-11-18T15:06:38;101020.63;;;6.24;84.32
31717;BME280;18301;51.076;17.046;2023-11-18T15:11:39;101022.41;;;6.25;84.45
31717;BME280;18301;51.076;17.046;2023-11-18T15:16:41;101023.91;;;6.31;84.16
31717;BME280;18301;51.076;17.046;2023-11-18T15:21:42;101022.25;;;6.28;83.81
31717;BME280;18301;51.076;17.046;2023-11-18T15:26:44;101019.38;;;6.12;84.13
31717;BME280;18301;51.076;17.046;2023-11-18T15:31:45;101009.88;;;6.05;84.07
31717;BME280;18301;51.076;17.046;2023-11-18T15:36:47;101009.59;;;6.11;83.98
31717;BME280;18301;51.076;17.046;2023-11-18T15:41:48;101002.28;;;6.15;84.05
31717;BME280;18301;51.076;17.046;2023-11-18T15:46:50;101006.59;;;6.19;84.31
31717;BME280;18301;51.076;17.046;2023-11-18T15:51:52;101022.59;;;6.20;85.12
31717;BME280;18301;51.076;17.046;2023-11-18T15:56:53;101017.38;;;6.17;85.49
31717;BME280;18301;51.076;17.046;2023-11-18T16:01:58;101022.06;;;6.12;85.31
31717;BME280;18301;51.076;17.046;2023-11-18T16:07:00;101019.19;;;6.17;85.93
31717;BME280;18301;51.076;17.046;2023-11-18T16:12:02;101026.34;;;6.16;85.76
31717;BME280;18301;51.076;17.046;2023-11-18T16:17:04;101030.19;;;6.11;85.88
31717;BME280;18301;51.076;17.046;2023-11-18T16:22:08;101038.38;;;6.08;86.41
31717;BME280;18301;51.076;17.046;2023-11-18T16:27:10;101029.59;;;6.04;86.80
31717;BME280;18301;51.076;17.046;2023-11-18T16:32:12;101015.97;;;6.09;86.35
31717;BME280;18301;51.076;17.046;2023-11-18T16:37:14;101018.75;;;6.07;86.20
31717;BME280;18301;51.076;17.046;2023-11-18T16:42:18;101022.59;;;6.00;86.81
31717;BME280;18301;51.076;17.046;2023-11-18T16:47:21;101023.84;;;5.93;87.59
31717;BME280;18301;51.076;17.046;2023-11-18T16:52:23;101007.53;;;5.77;88.28
31717;BME280;18301;51.076;17.046;2023-11-18T16:57:24;101029.84;;;5.77;88.28
31717;BME280;18301;51.076;17.046;2023-11-18T17:02:27;101025.69;;;5.70;89.23
31717;BME280;18301;51.076;17.046;2023-11-18T17:07:29;101029.03;;;5.75;89.29
31717;BME280;18301;51.076;17.046;2023-11-18T17:12:30;101014.59;;;5.80;89.57
31717;BME280;18301;51.076;17.046;2023-11-18T17:17:32;101022.47;;;5.83;89.97
31717;BME280;18301;51.076;17.046;2023-11-18T17:22:34;101030.84;;;5.54;91.27
31717;BME280;18301;51.076;17.046;2023-11-18T17:27:36;101025.25;;;5.39;92.95
31717;BME280;18301;51.076;17.046;2023-11-18T17:32:41;101024.13;;;5.44;92.26
31717;BME280;18301;51.076;17.046;2023-11-18T17:37:47;101025.13;;;5.42;92.62
31717;BME280;18301;51.076;17.046;2023-11-18T17:42:48;101006.47;;;5.40;93.26
31717;BME280;18301;51.076;17.046;2023-11-18T17:47:55;101003.84;;;5.59;92.92
31717;BME280;18301;51.076;17.046;2023-11-18T17:52:56;101013.50;;;5.63;93.13
31717;BME280;18301;51.076;17.046;2023-11-18T17:57:58;101010.75;;;5.65;93.30
31717;BME280;18301;51.076;17.046;2023-11-18T18:03:00;101010.50;;;5.71;93.36
31717;BME280;18301;51.076;17.046;2023-11-18T18:08:02;101010.69;;;5.87;92.27
31717;BME280;18301;51.076;17.046;2023-11-18T18:13:05;100999.44;;;5.78;93.19
31717;BME280;18301;51.076;17.046;2023-11-18T18:18:06;100985.13;;;5.80;93.22
31717;BME280;18301;51.076;17.046;2023-11-18T18:23:09;100981.56;;;5.79;92.64
31717;BME280;18301;51.076;17.046;2023-11-18T18:28:11;100989.38;;;5.84;93.07
31717;BME280;18301;51.076;17.046;2023-11-18T18:33:13;100989.81;;;5.74;93.07
31717;BME280;18301;51.076;17.046;2023-11-18T18:38:16;100988.06;;;5.73;93.40
31717;BME280;18301;51.076;17.046;2023-11-18T18:43:17;100986.66;;;5.85;93.17
31717;BME280;18301;51.076;17.046;2023-11-18T18:48:19;100978.94;;;5.77;93.37
31717;BME280;18301;51.076;17.046;2023-11-18T18:53:20;100968.69;;;5.87;93.68
31717;BME280;18301;51.076;17.046;2023-11-18T18:58:22;100949.50;;;5.77;93.41
31717;BME280;18301;51.076;17.046;2023-11-18T19:03:23;100943.84;;;5.84;93.53
31717;BME280;18301;51.076;17.046;2023-11-18T19:08:25;100952.03;;;5.81;92.45
31717;BME280;18301;51.076;17.046;2023-11-18T19:13:27;100953.13;;;5.56;93.45
31717;BME280;18301;51.076;17.046;2023-11-18T19:18:29;100952.53;;;5.49;93.86
31717;BME280;18301;51.076;17.046;2023-11-18T19:23:31;100954.47;;;5.25;94.55
31717;BME280;18301;51.076;17.046;2023-11-18T19:28:32;100949.19;;;5.24;94.42
31717;BME280;18301;51.076;17.046;2023-11-18T19:33:34;100942.91;;;5.25;94.74
31717;BME280;18301;51.076;17.046;2023-11-18T19:38:36;100934.66;;;5.29;94.91
31717;BME280;18301;51.076;17.046;2023-11-18T19:43:37;100929.13;;;5.34;95.11
31717;BME280;18301;51.076;17.046;2023-11-18T19:48:40;100923.22;;;5.26;96.23
31717;BME280;18301;51.076;17.046;2023-11-18T19:53:42;100904.16;;;5.34;96.38
31717;BME280;18301;51.076;17.046;2023-11-18T19:58:44;100898.41;;;5.43;95.88
31717;BME280;18301;51.076;17.046;2023-11-18T20:03:46;100883.28;;;5.21;96.91
31717;BME280;18301;51.076;17.046;2023-11-18T20:08:48;100892.91;;;5.25;96.84
31717;BME280;18301;51.076;17.046;2023-11-18T20:13:50;100891.84;;;5.29;96.74
31717;BME280;18301;51.076;17.046;2023-11-18T20:18:51;100881.75;;;5.36;96.54
31717;BME280;18301;51.076;17.046;2023-11-18T20:23:53;100881.41;;;5.44;96.29
31717;BME280;18301;51.076;17.046;2023-11-18T20:28:55;100872.06;;;5.34;95.86
31717;BME280;18301;51.076;17.046;2023-11-18T20:33:57;100849.16;;;5.26;95.71
31717;BME280;18301;51.076;17.046;2023-11-18T20:39:00;100843.28;;;5.18;96.32
31717;BME280;18301;51.076;17.046;2023-11-18T20:44:02;100844.66;;;5.08;96.89
31717;BME280;18301;51.076;17.046;2023-11-18T20:49:04;100851.84;;;5.06;96.68
31717;BME280;18301;51.076;17.046;2023-11-18T20:54:06;100837.41;;;5.10;95.70
31717;BME280;18301;51.076;17.046;2023-11-18T20:59:08;100845.16;;;5.16;95.55
31717;BME280;18301;51.076;17.046;2023-11-18T21:04:10;100833.53;;;5.17;95.71
31717;BME280;18301;51.076;17.046;2023-11-18T21:09:11;100831.13;;;5.11;95.04
31717;BME280;18301;51.076;17.046;2023-11-18T21:14:15;100834.22;;;5.02;95.08
31717;BME280;18301;51.076;17.046;2023-11-18T21:19:16;100822.44;;;4.85;95.26
31717;BME280;18301;51.076;17.046;2023-11-18T21:24:19;100820.09;;;4.78;95.51
31717;BME280;18301;51.076;17.046;2023-11-18T21:29:20;100828.91;;;4.80;95.52
31717;BME280;18301;51.076;17.046;2023-11-18T21:34:23;100827.00;;;4.83;95.68
31717;BME280;18301;51.076;17.046;2023-11-18T21:39:24;100820.84;;;4.81;95.76
31717;BME280;18301;51.076;17.046;2023-11-18T21:44:27;100821.09;;;4.75;95.72
31717;BME280;18301;51.076;17.046;2023-11-18T21:49:28;100794.50;;;4.72;96.06
31717;BME280;18301;51.076;17.046;2023-11-18T21:54:30;100791.47;;;4.80;95.38
31717;BME280;18301;51.076;17.046;2023-11-18T21:59:32;100783.72;;;4.74;94.89
31717;BME280;18301;51.076;17.046;2023-11-18T22:04:34;100781.25;;;4.69;95.57
31717;BME280;18301;51.076;17.046;2023-11-18T22:09:40;100777.00;;;4.65;95.48
31717;BME280;18301;51.076;17.046;2023-11-18T22:14:42;100775.38;;;4.61;95.71
31717;BME280;18301;51.076;17.046;2023-11-18T22:19:43;100769.84;;;4.66;96.19
31717;BME280;18301;51.076;17.046;2023-11-18T22:24:47;100757.88;;;4.54;96.57
31717;BME280;18301;51.076;17.046;2023-11-18T22:29:48;100760.13;;;4.43;96.89
31717;BME280;18301;51.076;17.046;2023-11-18T22:34:50;100757.00;;;4.53;96.47
31717;BME280;18301;51.076;17.046;2023-11-18T22:39:55;100754.25;;;4.55;97.03
31717;BME280;18301;51.076;17.046;2023-11-18T22:44:58;100753.19;;;4.59;96.99
31717;BME280;18301;51.076;17.046;2023-11-18T22:49:59;100753.78;;;4.45;96.73
31717;BME280;18301;51.076;17.046;2023-11-18T22:55:01;100751.78;;;4.50;96.72
31717;BME280;18301;51.076;17.046;2023-11-18T23:00:16;100742.78;;;4.53;96.67
31717;BME280;18301;51.076;17.046;2023-11-18T23:05:35;100721.41;;;4.53;96.77
31717;BME280;18301;51.076;17.046;2023-11-18T23:10:38;100711.16;;;4.42;96.53
31717;BME280;18301;51.076;17.046;2023-11-18T23:15:40;100697.06;;;4.38;97.06
31717;BME280;18301;51.076;17.046;2023-11-18T23:20:42;100688.50;;;4.30;97.32
31717;BME280;18301;51.076;17.046;2023-11-18T23:25:43;100671.81;;;4.25;96.43
31717;BME280;18301;51.076;17.046;2023-11-18T23:30:45;100672.16;;;4.38;96.04
31717;BME280;18301;51.076;17.046;2023-11-18T23:35:47;100670.19;;;4.21;96.33
31717;BME280;18301;51.076;17.046;2023-11-18T23:40:49;100668.47;;;4.20;96.15
31717;BME280;18301;51.076;17.046;2023-11-18T23:45:50;100672.94;;;4.20;96.56
31717;BME280;18301;51.076;17.046;2023-11-18T23:50:52;100663.88;;;4.24;96.62
31717;BME280;18301;51.076;17.046;2023-11-18T23:55:53;100666.66;;;4.21;96.62
